Thursday, October 23, 2014, 1:50 PM EDT

KRDG, Reading Regional Airport

Location: Reading, PA, United States Lat: 40.367
Local Time: 1:50 PM EDT (17:50 GMT) Lon: -75.967
Time Zone: US/Eastern Elev: 344 ft

Show me the last for .
Show Decoded

2014-10-23 12:54 METAR KRDG 231654Z 34012G20KT 10SM OVC025 12/06 A2982 RMK AO2 SLP104 T01220061 =
2014-10-23 11:54 METAR KRDG 231554Z 34019G25KT 10SM BKN027 OVC048 12/06 A2982 RMK AO2 RAE07
                 SLP103 P0000 T01220061 =
2014-10-23 10:54 METAR KRDG 231454Z 34010G17KT 10SM -RA OVC025 12/06 A2984 RMK AO2 RAB50 SLP108
                 P0000 60000 T01170061 52005 =
2014-10-23 09:54 METAR KRDG 231354Z 33009KT 10SM OVC027 11/06 A2983 RMK AO2 RAE00 SLP107 P0000
                 T01110061 =
2014-10-23 08:54 METAR KRDG 231254Z 33012KT 10SM -RA OVC027 11/06 A2983 RMK AO2 RAB29 SLP105
                 P0000 T01110061 =
2014-10-23 07:54 METAR KRDG 231154Z 33013KT 10SM BKN025 OVC080 11/07 A2982 =
2014-10-23 06:54 METAR KRDG 231054Z 33014KT 10SM -RA BKN028 OVC049 11/06 A2982 RMK AO2 RAB39
                 SLP104 P0000 T01060061 =
2014-10-23 06:50 METAR KRDG 231050Z 33013KT 10SM -RA BKN028 OVC055 11/06 A2983 RMK AO2 RAB39
                 P0000 =
2014-10-23 06:16 METAR KRDG 231016Z 34016G22KT 10SM SCT027 BKN043 OVC055 11/06 A2983 RMK AO2
                 T01110061 =
2014-10-23 05:54 METAR KRDG 230954Z 33012KT 10SM BKN027 BKN032 OVC040 11/06 A2982 RMK AO2 RAE31
                 SLP104 P0000 T01110061 =
2014-10-23 04:54 METAR KRDG 230854Z 33011KT 10SM -RA OVC025 11/06 A2983 RMK AO2 RAB51 SLP106
                 P0000 60000 T01110061 53001 =
2014-10-23 04:06 METAR KRDG 230806Z 34011G21KT 10SM BKN027 OVC049 11/06 A2982 RMK AO2 T01110061 =
2014-10-23 03:54 METAR KRDG 230754Z 34014G20KT 10SM SCT027 OVC049 11/06 A2982 RMK AO2 SLP102
                 T01110061 =
2014-10-23 03:35 METAR KRDG 230735Z 35017G24KT 10SM SCT026 OVC047 11/06 A2981 RMK AO2 T01110061 =
2014-10-23 02:54 METAR KRDG 230654Z 35011KT 10SM BKN025 OVC042 11/06 A2983 RMK AO2 RAB0558E16
                 SLP105 P0000 T01110061 =
2014-10-23 02:29 METAR KRDG 230629Z 35016KT 10SM BKN026 OVC048 11/06 A2983 RMK AO2 RAB0558E16
                 P0000 T01110061 =
2014-10-23 02:05 METAR KRDG 230605Z 35012G19KT 10SM -RA SCT026 OVC060 11/07 A2983 RMK AO2 RAB0558
                 P0000 T01110067 =
2014-10-23 01:54 METAR KRDG 230554Z 35010KT 10SM BKN026 OVC060 11/07 A2983 RMK AO2 RAE53 SLP104
                 P0001 60001 T01060067 10122 20094 58011 =
2014-10-23 00:54 METAR KRDG 230454Z 34015G20KT 10SM -RA OVC029 12/06 A2985 RMK AO2 RAB46 SLP111
                 P0000 T01170061 401390094 =
2014-10-23 00:17 METAR KRDG 230417Z 33015G23KT 10SM OVC030 12/07 A2985 RMK AO2 T01170067 =
2014-10-22 23:54 METAR KRDG 230354Z 34015G24KT 10SM BKN029 OVC038 12/07 A2986 RMK AO2 RAB07E18
                 SLP116 P0000 T01170067 =
2014-10-22 22:54 METAR KRDG 230254Z 33013G22KT 10SM OVC028 12/07 A2988 RMK AO2 RAE10 SLP122 P0000
                 60000 T01170067 58010 =
2014-10-22 22:10 METAR KRDG 230210Z 33014G19KT 10SM OVC029 12/07 A2989 RMK AO2 RAE10 P0000
                 T01170072 =
2014-10-22 21:54 METAR KRDG 230154Z 33016KT 10SM -RA BKN030 BKN037 OVC055 12/07 A2990 RMK AO2
                 RAE02B48 SLP129 P0000 T01170072 =
2014-10-22 21:42 METAR KRDG 230142Z 33014KT 10SM SCT029 BKN035 OVC050 12/07 A2990 RMK AO2 RAE02
                 P0000 T01170072 =
2014-10-22 21:31 METAR KRDG 230131Z 33015KT 10SM BKN029 OVC049 12/07 A2990 RMK AO2 RAE02 P0000
                 T01170072 =
2014-10-22 20:54 METAR KRDG 230054Z 34013KT 10SM -RA FEW027 BKN047 OVC055 11/08 A2990 RMK AO2
                 SLP131 P0000 T01060078 =
2014-10-22 20:47 METAR KRDG 230047Z 34013G21KT 10SM -RA SCT027 SCT039 OVC050 10/08 A2990 RMK AO2
                 P0000 T01000078 =
2014-10-22 19:54 METAR KRDG 222354Z 34018G24KT 10SM -RA OVC027 12/08 A2991 RMK AO2 RAB2256 SLP133
                 P0001 60001 T01220078 10139 20122 51002 =
2014-10-22 18:54 METAR KRDG 222254Z 35016G26KT 10SM OVC029 13/08 A2991 RMK AO2 PK WND 33026/2247
                 RAE12 SLP132 P0000 T01280078 =
2014-10-22 17:54 METAR KRDG 222154Z 36015KT 10SM -RA OVC026 13/08 A2991 RMK AO2 RAE2056B15 SLP132
                 P0000 T01330078 =
2014-10-22 16:54 METAR KRDG 222054Z 35013G22KT 10SM -RA OVC027 13/08 A2990 RMK AO2 RAB14 SLP130
                 P0000 60000 T01330083 57003 =
2014-10-22 15:54 METAR KRDG 221954Z 35011KT 10SM OVC025 13/08 A2991 =
2014-10-22 14:54 METAR KRDG 221854Z 36012G19KT 10SM OVC026 14/09 A2991 RMK AO2 SLP132 T01390089 =
2014-10-22 13:54 METAR KRDG 221754Z 01010KT 10SM OVC026 14/09 A2991 RMK AO2 RAE03 SLP134 P0000
                 60009 T01390089 10139 20122 58011 =

Support USWX by starting your Amazon purchase here.